Time;durP1;ratioP1;P1;durP2;ratioP2;P2;SDS_P1;SDS_P2;PMS_P1;PMS_P2;Temp;Humidity;BMP_temperature;BMP_pressure;BME280_temperature;BME280_humidity;BME280_pressure;Samples;Min_cycle;Max_cycle;Signal;HPM_P1;HPM_P2
2023/01/11 00:01:09;;;;;;;0.83;0.40;;;;;;;;;;5028231;28;20040;-76
2023/01/11 00:03:35;;;;;;;0.63;0.30;;;;;;;;;;5042095;28;20037;-78
2023/01/11 00:06:03;;;;;;;0.70;0.30;;;;;;;;;;5027464;28;20038;-79
2023/01/11 00:08:32;;;;;;;0.70;0.30;;;;;;;;;;5048130;28;20025;-78
2023/01/11 00:11:01;;;;;;;0.87;0.40;;;;;;;;;;5033124;28;20052;-78
2023/01/11 00:13:27;;;;;;;0.67;0.37;;;;;;;;;;5028968;28;20410;-79
2023/01/11 00:15:55;;;;;;;0.70;0.37;;;;;;;;;;5049604;28;20434;-77
2023/01/11 00:18:21;;;;;;;0.90;0.20;;;;;;;;;;5043277;28;20026;-78
2023/01/11 00:20:47;;;;;;;0.73;0.40;;;;;;;;;;5050638;28;20195;-77
2023/01/11 00:23:13;;;;;;;2.33;0.57;;;;;;;;;;5033511;28;20048;-79
2023/01/11 00:25:39;;;;;;;0.83;0.20;;;;;;;;;;5051222;28;20108;-78
2023/01/11 00:28:06;;;;;;;0.80;0.60;;;;;;;;;;5049644;28;20033;-78
2023/01/11 00:30:32;;;;;;;1.07;0.50;;;;;;;;;;5048745;28;20060;-77
2023/01/11 00:33:00;;;;;;;0.50;0.30;;;;;;;;;;5026504;28;20072;-79
2023/01/11 00:35:27;;;;;;;0.63;0.30;;;;;;;;;;5048675;28;20033;-77
2023/01/11 00:37:53;;;;;;;0.67;0.30;;;;;;;;;;5047850;28;20040;-76
2023/01/11 00:40:20;;;;;;;0.93;0.40;;;;;;;;;;5027716;28;21756;-77
2023/01/11 00:48:15;;;;;;;0.93;0.40;;;;;;;;;;5031841;28;20052;-76
2023/01/11 00:50:41;;;;;;;0.87;0.40;;;;;;;;;;5031876;28;20037;-78
2023/01/11 00:53:08;;;;;;;0.30;0.20;;;;;;;;;;5026148;28;20040;-78
2023/01/11 00:55:34;;;;;;;0.50;0.40;;;;;;;;;;5029306;28;20029;-78
2023/01/11 00:58:00;;;;;;;0.47;0.30;;;;;;;;;;5027036;28;20103;-76
2023/01/11 01:00:27;;;;;;;0.50;0.37;;;;;;;;;;5025941;28;20061;-78
2023/01/11 01:02:53;;;;;;;1.70;0.27;;;;;;;;;;5041505;28;20025;-78
2023/01/11 01:05:19;;;;;;;0.60;0.13;;;;;;;;;;5031834;28;20037;-78
2023/01/11 01:07:45;;;;;;;2.40;0.40;;;;;;;;;;5039766;28;20037;-78
2023/01/11 01:10:13;;;;;;;1.10;0.30;;;;;;;;;;5047721;28;20025;-77
2023/01/11 01:15:25;;;;;;;0.43;0.33;;;;;;;;;;5031258;28;20064;-78
2023/01/11 01:17:54;;;;;;;0.63;0.30;;;;;;;;;;5047505;28;20030;-77
2023/01/11 01:20:21;;;;;;;0.50;0.30;;;;;;;;;;5046577;28;20107;-78
2023/01/11 01:22:49;;;;;;;0.40;0.30;;;;;;;;;;5045670;28;20044;-76
2023/01/11 01:25:16;;;;;;;1.07;0.30;;;;;;;;;;5041525;28;20046;-78
2023/01/11 01:27:42;;;;;;;0.83;0.23;;;;;;;;;;5047484;28;20037;-76
2023/01/11 01:30:08;;;;;;;0.20;0.10;;;;;;;;;;5033370;28;20033;-78
2023/01/11 01:32:34;;;;;;;0.40;0.23;;;;;;;;;;5027147;28;20094;-79
2023/01/11 01:35:00;;;;;;;0.70;0.20;;;;;;;;;;5045523;28;20038;-77
2023/01/11 01:37:27;;;;;;;0.73;0.20;;;;;;;;;;5031345;28;20029;-78
2023/01/11 01:39:53;;;;;;;1.20;0.30;;;;;;;;;;5029586;28;20033;-78
2023/01/11 01:42:20;;;;;;;1.13;0.20;;;;;;;;;;5046389;28;20080;-77
2023/01/11 01:44:52;;;;;;;0.60;0.27;;;;;;;;;;5043782;28;20040;-78
2023/01/11 01:47:23;;;;;;;1.45;0.20;;;;;;;;;;5047863;28;20076;-77
2023/01/11 01:49:50;;;;;;;1.03;0.20;;;;;;;;;;5047377;28;20086;-78
2023/01/11 01:52:16;;;;;;;1.17;0.20;;;;;;;;;;5029358;28;20033;-78
2023/01/11 01:54:44;;;;;;;0.67;0.30;;;;;;;;;;5050241;28;20089;-77
2023/01/11 01:57:14;;;;;;;0.47;0.20;;;;;;;;;;5050803;28;20029;-77
2023/01/11 01:59:40;;;;;;;0.43;0.20;;;;;;;;;;5046520;28;20036;-77
2023/01/11 02:02:07;;;;;;;0.50;0.20;;;;;;;;;;5048153;28;20040;-78
2023/01/11 02:04:36;;;;;;;0.57;0.20;;;;;;;;;;5047344;28;20068;-77
2023/01/11 02:07:17;;;;;;;0.30;0.20;;;;;;;;;;5025383;28;20104;-78
2023/01/11 02:09:46;;;;;;;0.87;0.40;;;;;;;;;;5024830;28;20486;-77
2023/01/11 02:12:12;;;;;;;0.30;0.20;;;;;;;;;;5025580;28;20026;-79
2023/01/11 02:14:41;;;;;;;4.87;0.67;;;;;;;;;;5025018;28;20044;-78
2023/01/11 02:17:07;;;;;;;1.33;0.20;;;;;;;;;;5030539;28;20053;-78
2023/01/11 02:19:39;;;;;;;0.53;0.20;;;;;;;;;;5046425;28;20041;-78
2023/01/11 02:22:11;;;;;;;0.77;0.20;;;;;;;;;;5030819;28;20033;-78
2023/01/11 02:24:52;;;;;;;0.50;0.20;;;;;;;;;;5028230;28;20069;-78
2023/01/11 02:27:45;;;;;;;2.73;0.27;;;;;;;;;;5026035;28;20187;-77
2023/01/11 02:30:34;;;;;;;0.70;0.20;;;;;;;;;;5030462;28;20032;-78
2023/01/11 02:33:09;;;;;;;0.10;0.10;;;;;;;;;;5025699;28;20076;-77
2023/01/11 02:35:42;;;;;;;0.47;0.20;;;;;;;;;;5046839;28;20049;-78
2023/01/11 02:38:20;;;;;;;0.40;0.23;;;;;;;;;;5042454;28;20017;-77
2023/01/11 02:40:50;;;;;;;0.90;0.20;;;;;;;;;;5048591;28;20157;-77
2023/01/11 02:46:31;;;;;;;0.40;0.10;;;;;;;;;;5030388;28;20131;-79
2023/01/11 02:49:13;;;;;;;0.40;0.20;;;;;;;;;;5029872;28;20032;-77
2023/01/11 02:51:54;;;;;;;0.83;0.43;;;;;;;;;;5028419;28;20025;-79
2023/01/11 02:54:23;;;;;;;0.30;0.20;;;;;;;;;;5030168;28;20064;-78
2023/01/11 02:56:51;;;;;;;0.20;0.10;;;;;;;;;;5025754;28;20034;-79
2023/01/11 02:59:18;;;;;;;1.33;0.30;;;;;;;;;;5029668;28;20037;-79
2023/01/11 03:01:45;;;;;;;1.47;0.20;;;;;;;;;;5044875;28;20112;-77
2023/01/11 03:04:25;;;;;;;0.53;0.20;;;;;;;;;;5046086;28;20030;-78
2023/01/11 03:07:01;;;;;;;0.50;0.20;;;;;;;;;;5034585;28;20030;-78
2023/01/11 03:09:40;;;;;;;0.33;0.10;;;;;;;;;;5028089;28;20056;-77
2023/01/11 03:15:12;;;;;;;0.53;0.20;;;;;;;;;;5034482;28;20094;-78
2023/01/11 03:17:41;;;;;;;0.17;0.17;;;;;;;;;;5034101;28;20042;-77
2023/01/11 03:20:10;;;;;;;0.93;0.20;;;;;;;;;;5044261;28;20128;-76
2023/01/11 03:22:45;;;;;;;2.33;0.30;;;;;;;;;;5049780;28;20045;-77
2023/01/11 03:25:23;;;;;;;1.57;0.20;;;;;;;;;;5028559;28;20087;-77
2023/01/11 03:27:49;;;;;;;0.77;0.40;;;;;;;;;;5034136;28;20473;-76
2023/01/11 03:30:33;;;;;;;0.47;0.20;;;;;;;;;;5050011;28;20025;-76
2023/01/11 03:33:11;;;;;;;0.90;0.20;;;;;;;;;;5028571;28;20057;-77
2023/01/11 03:35:37;;;;;;;0.20;0.20;;;;;;;;;;5050121;28;20052;-78
2023/01/11 03:38:07;;;;;;;5.13;0.50;;;;;;;;;;5044240;28;20366;-76
2023/01/11 03:40:38;;;;;;;1.03;0.20;;;;;;;;;;5050702;28;20464;-76
2023/01/11 03:43:12;;;;;;;3.13;0.47;;;;;;;;;;5036029;28;20041;-76
2023/01/11 03:45:58;;;;;;;1.20;0.30;;;;;;;;;;5049316;28;20025;-76
2023/01/11 03:48:29;;;;;;;2.83;0.30;;;;;;;;;;5029443;28;20033;-77
2023/01/11 03:50:55;;;;;;;0.83;0.30;;;;;;;;;;5027831;28;20052;-77
2023/01/11 03:53:25;;;;;;;0.87;0.30;;;;;;;;;;5045443;28;20037;-77
2023/01/11 03:58:51;;;;;;;0.60;0.40;;;;;;;;;;5035864;28;20118;-76
2023/01/11 04:01:17;;;;;;;0.60;0.30;;;;;;;;;;5030118;28;20044;-77
2023/01/11 04:03:43;;;;;;;0.90;0.30;;;;;;;;;;5049164;28;20072;-77
2023/01/11 04:06:13;;;;;;;1.13;0.37;;;;;;;;;;5049315;28;20429;-77
2023/01/11 04:08:41;;;;;;;1.57;0.53;;;;;;;;;;5034699;28;20033;-76
2023/01/11 04:11:07;;;;;;;4.60;1.07;;;;;;;;;;5043534;28;20021;-77
2023/01/11 04:13:33;;;;;;;1.03;0.60;;;;;;;;;;5030208;28;20389;-77
2023/01/11 04:16:01;;;;;;;1.43;0.60;;;;;;;;;;5044503;28;20025;-76
2023/01/11 04:18:27;;;;;;;1.03;0.40;;;;;;;;;;5033722;28;20099;-77
2023/01/11 04:20:53;;;;;;;1.80;0.60;;;;;;;;;;5044700;28;20454;-76
2023/01/11 04:23:19;;;;;;;0.63;0.40;;;;;;;;;;5033598;28;20044;-77
2023/01/11 04:25:46;;;;;;;0.97;0.40;;;;;;;;;;5036373;28;20774;-77
2023/01/11 04:28:14;;;;;;;4.10;0.50;;;;;;;;;;5028715;28;20022;-77
2023/01/11 04:30:40;;;;;;;1.10;0.50;;;;;;;;;;5028997;28;20021;-77
2023/01/11 04:33:06;;;;;;;0.90;0.37;;;;;;;;;;5045406;28;20037;-77
2023/01/11 04:35:32;;;;;;;5.43;0.40;;;;;;;;;;5033323;28;20029;-77
2023/01/11 04:37:58;;;;;;;0.40;0.20;;;;;;;;;;5026527;28;20033;-76
2023/01/11 04:40:24;;;;;;;1.27;0.20;;;;;;;;;;5032133;28;20037;-76
2023/01/11 04:42:51;;;;;;;0.30;0.10;;;;;;;;;;5035416;28;20034;-77
2023/01/11 04:45:16;;;;;;;0.80;0.20;;;;;;;;;;5044808;28;20396;-77
2023/01/11 04:47:47;;;;;;;0.20;0.10;;;;;;;;;;5052115;28;20071;-77
2023/01/11 04:50:13;;;;;;;0.70;0.20;;;;;;;;;;5033018;28;20091;-77
2023/01/11 04:52:40;;;;;;;2.10;0.20;;;;;;;;;;5044478;28;20037;-77
2023/01/11 04:55:06;;;;;;;1.20;0.10;;;;;;;;;;5043982;28;21780;-77
2023/01/11 04:57:32;;;;;;;1.83;0.10;;;;;;;;;;5027445;28;20041;-78
2023/01/11 04:59:58;;;;;;;1.47;0.20;;;;;;;;;;5034052;28;20112;-77
2023/01/11 05:02:24;;;;;;;1.03;0.23;;;;;;;;;;5049308;28;20053;-77
2023/01/11 05:04:50;;;;;;;1.27;0.20;;;;;;;;;;5033113;28;20459;-78
2023/01/11 05:07:16;;;;;;;0.93;0.23;;;;;;;;;;5027298;28;20033;-77
2023/01/11 05:09:44;;;;;;;0.50;0.20;;;;;;;;;;5041732;28;20061;-77
2023/01/11 05:12:10;;;;;;;0.83;0.20;;;;;;;;;;5048848;28;20025;-77
2023/01/11 05:14:36;;;;;;;1.20;0.30;;;;;;;;;;5042941;28;20615;-77
2023/01/11 05:17:02;;;;;;;4.03;0.53;;;;;;;;;;5048209;28;20119;-77
2023/01/11 05:19:28;;;;;;;1.53;0.30;;;;;;;;;;5049422;28;20044;-77
2023/01/11 05:21:54;;;;;;;1.57;0.40;;;;;;;;;;5034351;28;20473;-77
2023/01/11 05:24:22;;;;;;;0.97;0.30;;;;;;;;;;5027040;28;20029;-78
2023/01/11 05:26:49;;;;;;;2.03;0.30;;;;;;;;;;5028301;28;20029;-77
2023/01/11 05:29:15;;;;;;;0.73;0.20;;;;;;;;;;5048975;28;20113;-77
2023/01/11 05:31:41;;;;;;;0.43;0.30;;;;;;;;;;5031736;28;20029;-77
2023/01/11 05:34:07;;;;;;;1.90;0.40;;;;;;;;;;5043923;28;20175;-77
2023/01/11 05:36:34;;;;;;;0.90;0.40;;;;;;;;;;5046266;28;20246;-77
2023/01/11 05:39:03;;;;;;;0.60;0.30;;;;;;;;;;5051917;28;20029;-77
2023/01/11 05:41:29;;;;;;;2.50;0.30;;;;;;;;;;5048870;28;20036;-77
2023/01/11 05:46:41;;;;;;;1.97;0.50;;;;;;;;;;5033424;28;20079;-78
2023/01/11 05:49:08;;;;;;;0.40;0.17;;;;;;;;;;5047628;28;20034;-77
2023/01/11 05:51:34;;;;;;;2.73;0.30;;;;;;;;;;5027012;28;20032;-77
2023/01/11 05:54:01;;;;;;;0.57;0.20;;;;;;;;;;5048818;28;20447;-77
2023/01/11 05:56:27;;;;;;;2.10;0.27;;;;;;;;;;5048147;28;20037;-77
2023/01/11 05:58:53;;;;;;;1.23;0.20;;;;;;;;;;5032018;28;20029;-78
2023/01/11 06:01:24;;;;;;;0.93;0.20;;;;;;;;;;5027890;28;20032;-77
2023/01/11 06:03:50;;;;;;;1.67;0.30;;;;;;;;;;5049557;28;20033;-77
2023/01/11 06:06:17;;;;;;;1.63;0.53;;;;;;;;;;5027360;28;20361;-78
2023/01/11 06:08:43;;;;;;;0.33;0.20;;;;;;;;;;5042065;28;20025;-78
2023/01/11 06:11:09;;;;;;;0.57;0.30;;;;;;;;;;5048709;28;20017;-78
2023/01/11 06:13:35;;;;;;;0.57;0.20;;;;;;;;;;5043634;28;20037;-77
2023/01/11 06:16:05;;;;;;;3.90;0.40;;;;;;;;;;5033812;28;20036;-77
2023/01/11 06:18:33;;;;;;;0.87;0.30;;;;;;;;;;5029692;28;20048;-78
2023/01/11 06:21:00;;;;;;;1.23;0.30;;;;;;;;;;5048462;28;20108;-76
2023/01/11 06:23:26;;;;;;;1.43;0.37;;;;;;;;;;5048644;28;20037;-77
2023/01/11 06:25:52;;;;;;;1.63;0.40;;;;;;;;;;5048284;28;20029;-78
2023/01/11 06:28:18;;;;;;;0.50;0.20;;;;;;;;;;5044957;28;20096;-78
2023/01/11 06:30:50;;;;;;;1.60;0.20;;;;;;;;;;5040776;28;20029;-77
2023/01/11 06:33:16;;;;;;;0.80;0.30;;;;;;;;;;5028063;28;20071;-77
2023/01/11 06:35:42;;;;;;;4.87;0.47;;;;;;;;;;5025083;28;20409;-77
2023/01/11 06:38:10;;;;;;;1.60;0.50;;;;;;;;;;5028012;28;20116;-77
2023/01/11 06:40:36;;;;;;;1.20;0.50;;;;;;;;;;5036651;28;20056;-77
2023/01/11 06:43:02;;;;;;;2.30;0.30;;;;;;;;;;5053175;28;20042;-77
2023/01/11 06:45:30;;;;;;;1.30;0.40;;;;;;;;;;5036081;28;20028;-76
2023/01/11 06:47:56;;;;;;;2.50;0.80;;;;;;;;;;5036542;28;20029;-79
2023/01/11 06:50:22;;;;;;;4.10;0.70;;;;;;;;;;5029995;28;20105;-78
2023/01/11 06:53:00;;;;;;;0.70;0.30;;;;;;;;;;5050834;28;20100;-78
2023/01/11 06:55:27;;;;;;;2.07;0.53;;;;;;;;;;5053635;28;20036;-78
2023/01/11 06:57:55;;;;;;;0.90;0.53;;;;;;;;;;5027517;28;20037;-77
2023/01/11 07:00:24;;;;;;;3.27;0.93;;;;;;;;;;5053010;28;20450;-79
2023/01/11 07:02:50;;;;;;;3.03;0.60;;;;;;;;;;5035041;28;20029;-78
2023/01/11 07:05:17;;;;;;;1.43;0.40;;;;;;;;;;5051009;28;20021;-79
2023/01/11 07:07:43;;;;;;;2.90;0.50;;;;;;;;;;5034778;28;20462;-77
2023/01/11 07:10:16;;;;;;;0.63;0.40;;;;;;;;;;5035081;28;20438;-76
2023/01/11 07:12:42;;;;;;;1.90;0.50;;;;;;;;;;5030760;28;20037;-76
2023/01/11 07:15:20;;;;;;;3.27;0.63;;;;;;;;;;5029345;28;20026;-78
2023/01/11 07:17:48;;;;;;;4.17;0.80;;;;;;;;;;5034135;28;20090;-78
2023/01/11 07:20:14;;;;;;;2.60;0.80;;;;;;;;;;5055476;28;20029;-76
2023/01/11 07:22:42;;;;;;;1.57;0.67;;;;;;;;;;5032496;28;20044;-76
2023/01/11 07:25:08;;;;;;;3.83;0.50;;;;;;;;;;5033886;28;20057;-77
2023/01/11 07:27:34;;;;;;;2.73;1.00;;;;;;;;;;5034865;28;20025;-76
2023/01/11 07:30:00;;;;;;;5.33;1.00;;;;;;;;;;5031921;28;20040;-78
2023/01/11 07:32:27;;;;;;;5.93;0.97;;;;;;;;;;5029609;28;20536;-77
2023/01/11 07:34:53;;;;;;;1.80;0.90;;;;;;;;;;5044453;28;20037;-77
2023/01/11 07:37:24;;;;;;;1.63;0.50;;;;;;;;;;5050237;28;20029;-76
2023/01/11 07:40:16;;;;;;;1.00;0.80;;;;;;;;;;5025935;28;20462;-76
2023/01/11 07:45:31;;;;;;;1.07;0.70;;;;;;;;;;5028806;28;20049;-78
2023/01/11 07:47:57;;;;;;;1.87;0.40;;;;;;;;;;5027515;28;20034;-78
2023/01/11 07:50:23;;;;;;;0.77;0.33;;;;;;;;;;5028820;28;20022;-78
2023/01/11 07:52:51;;;;;;;1.93;0.40;;;;;;;;;;5025640;28;21003;-78
2023/01/11 07:55:17;;;;;;;1.77;0.40;;;;;;;;;;5027720;28;20353;-77
2023/01/11 07:57:43;;;;;;;4.00;0.63;;;;;;;;;;5006629;28;20037;-77
2023/01/11 08:00:10;;;;;;;0.97;0.43;;;;;;;;;;5024982;28;20041;-76
2023/01/11 08:02:36;;;;;;;1.47;0.40;;;;;;;;;;5006802;28;20044;-77
2023/01/11 08:05:02;;;;;;;1.90;0.20;;;;;;;;;;5041168;28;20034;-78
2023/01/11 08:07:27;;;;;;;1.07;0.40;;;;;;;;;;5035077;28;20503;-77
2023/01/11 08:09:53;;;;;;;1.43;0.37;;;;;;;;;;5026126;28;20035;-79
2023/01/11 08:15:04;;;;;;;3.23;0.63;;;;;;;;;;5034000;28;20056;-77
2023/01/11 08:17:32;;;;;;;1.20;0.40;;;;;;;;;;5024082;28;20374;-79
2023/01/11 08:19:58;;;;;;;0.97;0.47;;;;;;;;;;5049442;28;21778;-78
2023/01/11 08:22:24;;;;;;;1.33;0.50;;;;;;;;;;5033500;28;20421;-77
2023/01/11 08:24:50;;;;;;;3.63;0.97;;;;;;;;;;5027982;28;20041;-78
2023/01/11 08:27:16;;;;;;;4.60;0.93;;;;;;;;;;5032414;28;20025;-77
2023/01/11 08:29:45;;;;;;;1.50;0.47;;;;;;;;;;5048166;28;20360;-78
2023/01/11 08:32:11;;;;;;;1.63;0.50;;;;;;;;;;5031221;28;20029;-77
2023/01/11 08:34:42;;;;;;;2.50;0.60;;;;;;;;;;5007951;28;1157441;-77
2023/01/11 08:37:08;;;;;;;1.00;0.40;;;;;;;;;;5050147;28;20051;-77
2023/01/11 08:39:34;;;;;;;7.53;0.97;;;;;;;;;;5049962;28;20365;-78
2023/01/11 08:42:01;;;;;;;3.33;0.67;;;;;;;;;;5049567;28;20033;-77
2023/01/11 08:44:27;;;;;;;4.07;0.87;;;;;;;;;;5033346;28;20037;-77
2023/01/11 08:46:53;;;;;;;3.63;0.70;;;;;;;;;;5029680;28;20095;-80
2023/01/11 08:49:19;;;;;;;4.53;0.80;;;;;;;;;;5027618;28;20026;-78
2023/01/11 08:51:45;;;;;;;8.03;0.83;;;;;;;;;;5049914;28;20065;-77
2023/01/11 08:54:13;;;;;;;6.40;0.87;;;;;;;;;;5029091;28;20594;-77
2023/01/11 08:56:39;;;;;;;2.73;1.00;;;;;;;;;;5045131;28;20026;-78
2023/01/11 08:59:05;;;;;;;4.57;0.93;;;;;;;;;;5041067;28;20038;-78
2023/01/11 09:01:32;;;;;;;6.20;1.10;;;;;;;;;;5029693;28;20041;-77
2023/01/11 09:04:01;;;;;;;3.87;0.90;;;;;;;;;;5046923;28;20198;-75
2023/01/11 09:06:27;;;;;;;4.20;1.23;;;;;;;;;;5044858;28;20022;-77
2023/01/11 09:08:53;;;;;;;6.70;1.13;;;;;;;;;;5024958;28;20052;-78
2023/01/11 09:14:03;;;;;;;2.13;0.73;;;;;;;;;;5033170;28;20076;-79
2023/01/11 09:16:32;;;;;;;2.83;1.03;;;;;;;;;;5047568;28;20029;-76
2023/01/11 09:18:58;;;;;;;3.37;1.00;;;;;;;;;;5047779;28;20025;-78
2023/01/11 09:21:24;;;;;;;3.80;1.17;;;;;;;;;;5041653;28;20112;-76
2023/01/11 09:23:50;;;;;;;4.90;1.10;;;;;;;;;;5024391;28;20048;-78
2023/01/11 09:26:18;;;;;;;8.07;2.57;;;;;;;;;;5046553;28;20044;-79
2023/01/11 09:28:44;;;;;;;10.47;3.70;;;;;;;;;;5041677;28;20040;-79
2023/01/11 09:31:10;;;;;;;8.43;3.03;;;;;;;;;;5039374;28;20112;-78
2023/01/11 09:33:38;;;;;;;10.13;3.43;;;;;;;;;;5025300;28;20132;-77
2023/01/11 09:36:04;;;;;;;12.97;3.77;;;;;;;;;;5047851;28;20064;-77
2023/01/11 09:38:32;;;;;;;10.17;3.83;;;;;;;;;;5047221;28;20033;-78
2023/01/11 09:41:04;;;;;;;14.73;4.20;;;;;;;;;;5047439;28;20029;-78
2023/01/11 09:43:30;;;;;;;9.87;2.70;;;;;;;;;;5046482;28;20469;-79
2023/01/11 09:46:01;;;;;;;13.67;2.90;;;;;;;;;;5047157;28;20061;-76
2023/01/11 09:48:29;;;;;;;9.50;2.90;;;;;;;;;;5047341;28;20029;-79
2023/01/11 09:50:56;;;;;;;13.30;3.17;;;;;;;;;;5046821;28;20064;-77
2023/01/11 09:53:30;;;;;;;8.77;2.60;;;;;;;;;;5047938;28;20071;-78
2023/01/11 09:55:58;;;;;;;10.00;2.70;;;;;;;;;;5041932;28;20619;-79
2023/01/11 09:58:37;;;;;;;9.40;2.90;;;;;;;;;;5032483;28;20045;-77
2023/01/11 10:01:16;;;;;;;10.23;2.50;;;;;;;;;;5043462;28;20059;-77
2023/01/11 10:04:25;;;;;;;13.67;3.63;;;10.70;99.90;;;;;;5047749;28;20060;-79
2023/01/11 10:07:20;;;;;;;25.80;4.57;;;10.70;99.90;;;;;;5040992;28;20033;-78
2023/01/11 10:10:04;;;;;;;19.23;3.60;;;;;;;;;;5046120;28;20505;-78
2023/01/11 10:12:30;;;;;;;24.93;5.40;;;;;;;;;;5045453;28;20029;-78
2023/01/11 10:15:05;;;;;;;18.17;3.70;;;;;;;;;;5026451;28;20029;-77
2023/01/11 10:17:59;;;;;;;12.47;3.30;;;10.60;99.90;;;;;;5026182;28;20053;-77
2023/01/11 10:20:40;;;;;;;15.17;3.60;;;10.60;99.90;;;;;;5015668;28;20370;-78
2023/01/11 10:23:24;;;;;;;19.43;4.00;;;;;;;;;;5046870;28;20120;-78
2023/01/11 10:25:55;;;;;;;24.27;4.50;;;10.60;99.90;;;;;;5027609;28;20068;-76
2023/01/11 10:28:31;;;;;;;22.33;4.53;;;;;;;;;;5030173;28;20025;-78
2023/01/11 10:31:25;;;;;;;16.37;3.80;;;10.60;99.90;;;;;;5021616;28;20036;-79
2023/01/11 10:37:09;;;;;;;24.60;3.40;;;10.50;99.90;;;;;;5031286;28;20446;-77
2023/01/11 10:39:54;;;;;;;16.37;3.43;;;10.60;99.90;;;;;;5022901;28;20049;-76
2023/01/11 10:42:25;;;;;;;23.23;4.17;;;;;;;;;;5029424;28;20041;-77
2023/01/11 10:45:02;;;;;;;15.50;3.53;;;;;;;;;;5030529;28;20048;-75
2023/01/11 10:47:40;;;;;;;14.33;4.40;;;10.60;99.90;;;;;;5025848;28;20832;-77
2023/01/11 10:50:46;;;;;;;19.77;3.67;;;10.60;99.90;;;;;;5026486;28;20048;-78
2023/01/11 10:53:42;;;;;;;15.90;3.70;;;10.60;99.90;;;;;;5029459;28;20037;-78
2023/01/11 10:56:29;;;;;;;19.63;3.93;;;10.40;99.90;;;;;;5019084;28;20063;-77
2023/01/11 10:59:19;;;;;;;19.50;4.43;;;;;;;;;;5044369;28;20029;-76
2023/01/11 11:01:54;;;;;;;15.27;3.73;;;;;;;;;;5044760;28;20038;-77
2023/01/11 11:04:23;;;;;;;18.90;3.93;;;;;;;;;;5030511;28;20037;-77
2023/01/11 11:06:49;;;;;;;10.43;3.27;;;;;;;;;;5030169;28;20099;-77
2023/01/11 11:09:20;;;;;;;20.17;4.60;;;;;;;;;;5032119;28;20599;-77
2023/01/11 11:11:52;;;;;;;16.60;3.27;;;;;;;;;;5024736;28;20124;-76
2023/01/11 11:14:37;;;;;;;28.33;4.17;;;;;;;;;;5040625;28;20029;-78
2023/01/11 11:17:12;;;;;;;17.07;4.50;;;;;;;;;;5045416;28;20049;-77
2023/01/11 11:19:40;;;;;;;16.93;3.50;;;;;;;;;;5041312;28;20029;-77
2023/01/11 11:22:09;;;;;;;16.10;3.93;;;;;;;;;;5029512;28;21734;-76
2023/01/11 11:24:34;;;;;;;14.80;3.33;;;;;;;;;;5049036;28;20037;-77
2023/01/11 11:27:22;;;;;;;16.83;3.77;;;;;;;;;;5032108;28;20033;-77
2023/01/11 11:29:49;;;;;;;16.87;3.13;;;;;;;;;;5049960;28;20061;-77
2023/01/11 11:32:36;;;;;;;18.53;3.03;;;;;;;;;;5049372;28;20033;-76
2023/01/11 11:35:03;;;;;;;23.53;3.67;;;;;;;;;;5048036;28;20449;-76
2023/01/11 11:37:44;;;;;;;22.83;3.53;;;;;;;;;;5030911;28;20040;-77
2023/01/11 11:40:27;;;;;;;20.90;4.73;;;;;;;;;;5032786;28;20840;-77
2023/01/11 11:43:11;;;;;;;15.00;3.43;;;;;;;;;;5032841;28;20036;-77
2023/01/11 11:45:49;;;;;;;21.87;3.17;;;;;;;;;;5028115;28;20056;-77
2023/01/11 11:48:15;;;;;;;15.70;3.03;;;;;;;;;;5024804;28;20025;-76
2023/01/11 11:50:41;;;;;;;18.67;3.23;;;;;;;;;;5025645;28;20163;-77
2023/01/11 11:53:07;;;;;;;24.60;3.93;;;;;;;;;;5042519;28;20034;-76
2023/01/11 11:55:34;;;;;;;16.17;3.13;;;;;;;;;;5042490;28;20045;-77
2023/01/11 11:58:04;;;;;;;21.97;3.37;;;;;;;;;;5032707;28;20104;-78
2023/01/11 12:00:31;;;;;;;14.47;3.37;;;;;;;;;;5048898;28;20029;-77
2023/01/11 12:03:00;;;;;;;26.00;4.53;;;;;;;;;;5026627;28;20041;-77
2023/01/11 12:05:28;;;;;;;18.50;3.53;;;;;;;;;;5046818;28;20033;-77
2023/01/11 12:07:55;;;;;;;18.70;4.20;;;;;;;;;;5041949;28;20029;-76
2023/01/11 12:10:26;;;;;;;16.33;3.57;;;;;;;;;;5026598;28;20164;-77
2023/01/11 12:12:54;;;;;;;20.70;3.13;;;;;;;;;;5047130;28;20037;-77
2023/01/11 12:15:25;;;;;;;22.17;3.53;;;;;;;;;;5024229;28;20025;-76
2023/01/11 12:17:53;;;;;;;26.70;3.53;;;;;;;;;;5025100;28;20025;-78
2023/01/11 12:20:22;;;;;;;19.17;3.57;;;;;;;;;;5040312;28;20033;-76
2023/01/11 12:22:48;;;;;;;20.87;3.27;;;;;;;;;;5046965;28;20029;-78
2023/01/11 12:25:14;;;;;;;21.70;3.70;;;;;;;;;;5046638;28;20021;-77
2023/01/11 12:27:59;;;;;;;15.10;3.00;;;;;;;;;;5047066;28;20461;-77
2023/01/11 12:30:25;;;;;;;18.53;2.87;;;;;;;;;;5040525;28;20108;-77
2023/01/11 12:33:09;;;;;;;21.63;2.83;;;;;;;;;;5046344;28;20071;-78
2023/01/11 12:35:35;;;;;;;19.03;3.20;;;;;;;;;;5046309;28;20087;-77
2023/01/11 12:38:28;;;;;;;16.87;2.50;;;;;;;;;;5044734;28;20033;-77
2023/01/11 12:41:01;;;;;;;17.63;3.58;;;;;;;;;;5025004;28;20029;-75
2023/01/11 12:43:35;;;;;;;22.33;4.00;;;;;;;;;;5045999;28;20052;-77
2023/01/11 12:46:01;;;;;;;11.17;2.50;;;9.90;99.90;;;;;;5025168;28;20035;-77
2023/01/11 12:48:27;;;;;;;18.97;3.53;;;;;;;;;;5026747;28;20025;-77
2023/01/11 12:51:30;;;;;;;15.30;2.53;;;10.10;99.90;;;;;;5045735;28;20033;-77
2023/01/11 12:54:04;;;;;;;;;;;10.10;99.90;;;;;;5024794;28;20037;-78
2023/01/11 12:56:51;;;;;;;17.47;2.33;;;;;;;;;;5031409;28;19909;-77
2023/01/11 12:59:29;;;;;;;18.40;2.60;;;;;;;;;;5045669;28;20037;-76
2023/01/11 13:02:27;;;;;;;20.17;3.23;;;;;;;;;;5045864;28;20029;-76
2023/01/11 13:05:12;;;;;;;14.90;2.80;;;;;;;;;;5024698;28;20490;-77
2023/01/11 13:07:47;;;;;;;12.90;2.37;;;;;;;;;;5045149;28;20030;-78
2023/01/11 13:10:34;;;;;;;14.47;2.87;;;10.60;99.90;;;;;;5046542;28;20025;-76
2023/01/11 13:13:34;;;;;;;13.60;2.80;;;10.70;99.90;;;;;;5020070;28;20025;-78
2023/01/11 13:16:04;;;;;;;17.50;2.97;;;;;;;;;;5030522;28;20116;-77
2023/01/11 13:18:30;;;;;;;18.10;4.20;;;;;;;;;;5045145;28;20463;-78
2023/01/11 13:20:56;;;;;;;18.37;2.73;;;;;;;;;;5047240;28;20045;-76
2023/01/11 13:23:31;;;;;;;16.43;3.47;;;;;;;;;;5040815;28;20036;-78
2023/01/11 13:26:00;;;;;;;19.47;2.47;;;;;;;;;;5024597;28;20045;-77
2023/01/11 13:28:33;;;;;;;14.30;2.77;;;;;;;;;;5030443;28;20034;-78
2023/01/11 13:31:01;;;;;;;15.57;2.72;;;;;;;;;;5039908;28;20029;-76
2023/01/11 13:33:32;;;;;;;19.43;2.87;;;10.90;99.90;;;;;;5029511;28;20128;-78
2023/01/11 13:36:12;;;;;;;15.73;2.33;;;11.00;99.90;;;;;;5025724;28;20029;-75
2023/01/11 13:38:44;;;;;;;16.43;2.83;;;;;;;;;;5027981;28;20472;-78
2023/01/11 13:41:19;;;;;;;16.97;2.60;;;;;;;;;;5039523;28;20033;-77
2023/01/11 13:44:11;;;;;;;9.37;2.00;;;;;;;;;;5040430;28;20806;-78
2023/01/11 13:46:37;;;;;;;16.42;2.78;;;;;;;;;;5029865;28;20057;-76
2023/01/11 13:49:19;;;;;;;13.13;3.10;;;;;;;;;;5028446;28;20366;-77
2023/01/11 13:51:48;;;;;;;18.98;2.65;;;;;;;;;;5044911;28;20974;-79
2023/01/11 13:54:50;;;;;;;21.27;3.90;;;;;;;;;;5041354;28;20047;-77
2023/01/11 13:57:24;;;;;;;14.73;3.47;;;;;;;;;;5007535;28;20038;-79
2023/01/11 13:59:54;;;;;;;13.67;2.97;;;;;;;;;;5034343;28;20059;-77
2023/01/11 14:02:30;;;;;;;19.50;3.03;;;;;;;;;;5023046;28;21708;-78
2023/01/11 14:04:59;;;;;;;16.43;3.10;;;;;;;;;;5022649;28;20595;-78
2023/01/11 14:07:44;;;;;;;15.60;3.10;;;;;;;;;;5044268;28;20039;-78
2023/01/11 14:10:20;;;;;;;13.70;2.73;;;;;;;;;;5038591;28;20040;-77
2023/01/11 14:13:00;;;;;;;26.83;3.37;;;;;;;;;;5038227;28;20021;-77
2023/01/11 14:15:37;;;;;;;14.17;2.97;;;;;;;;;;5021664;28;20046;-79
2023/01/11 14:18:07;;;;;;;17.07;3.53;;;;;;;;;;5022420;28;20026;-76
2023/01/11 14:20:41;;;;;;;19.77;3.40;;;;;;;;;;5042517;28;20075;-78
2023/01/11 14:23:07;;;;;;;15.70;3.57;;;;;;;;;;5023431;28;20090;-77
2023/01/11 14:25:41;;;;;;;14.10;2.83;;;;;;;;;;5027871;28;20120;-78
2023/01/11 14:28:07;;;;;;;17.20;2.80;;;;;;;;;;5029328;28;20044;-76
2023/01/11 14:30:36;;;;;;;15.90;2.27;;;;;;;;;;5043973;28;20359;-75
2023/01/11 14:33:15;;;;;;;20.43;3.17;;;;;;;;;;5044113;28;21715;-77
2023/01/11 14:35:57;;;;;;;22.77;3.57;;;;;;;;;;5044621;28;20044;-76
2023/01/11 14:38:29;;;;;;;18.63;4.38;;;;;;;;;;5044138;28;20060;-77
2023/01/11 14:41:01;;;;;;;21.33;3.30;;;;;;;;;;5023464;28;20084;-77
2023/01/11 14:43:49;;;;;;;19.95;3.08;;;;;;;;;;5045044;28;20808;-78
2023/01/11 14:46:20;;;;;;;25.97;3.37;;;11.50;99.90;;;;;;5029658;28;20022;-77
2023/01/11 14:49:05;;;;;;;10.60;2.77;;;;;;;;;;5024998;28;20026;-78
2023/01/11 14:51:44;;;;;;;17.63;3.20;;;11.20;99.90;;;;;;5029442;28;20030;-78
2023/01/11 14:54:39;;;;;;;19.37;3.50;;;11.20;99.90;;;;;;5024644;28;20048;-78
2023/01/11 14:57:25;;;;;;;22.60;3.40;;;11.10;99.90;;;;;;5026147;28;20034;-78
2023/01/11 14:59:51;;;;;;;20.37;3.27;;;10.80;99.90;;;;;;5021577;28;20036;-78
2023/01/11 15:02:22;;;;;;;30.83;4.43;;;;;;;;;;5032341;28;20108;-79
2023/01/11 15:04:51;;;;;;;19.55;3.53;;;10.60;99.90;;;;;;5049011;28;20045;-78
2023/01/11 15:07:30;;;;;;;24.47;3.97;;;;;;;;;;5034255;28;20029;-77
2023/01/11 15:09:57;;;;;;;16.93;3.63;;;;;;;;;;5049732;28;20060;-78
2023/01/11 15:12:24;;;;;;;16.03;3.03;;;;;;;;;;5028203;28;20041;-79
2023/01/11 15:14:54;;;;;;;17.60;3.13;;;;;;;;;;5050011;28;20033;-77
2023/01/11 15:20:11;;;;;;;19.77;3.10;;;;;;;;;;5032803;28;20095;-78
2023/01/11 15:22:37;;;;;;;18.80;3.20;;;;;;;;;;5043540;28;20033;-78
2023/01/11 15:25:06;;;;;;;20.63;3.90;;;;;;;;;;5044724;28;20124;-77